createdAt,value
2022-08-05T00:01:35.459Z,26.40
2022-08-05T00:04:08.173Z,26.30
2022-08-05T00:06:37.857Z,26.20
2022-08-05T00:09:12.868Z,26.10
2022-08-05T00:11:49.469Z,26.00
2022-08-05T00:14:27.485Z,25.90
2022-08-05T00:16:57.221Z,25.70
2022-08-05T00:19:40.641Z,25.50
2022-08-05T00:22:15.148Z,25.40
2022-08-05T00:24:46.087Z,25.30
2022-08-05T00:27:36.326Z,25.20
2022-08-05T00:30:11.296Z,25.10
2022-08-05T00:32:40.569Z,24.90
2022-08-05T00:35:09.686Z,24.60
2022-08-05T00:37:52.384Z,24.40
2022-08-05T00:40:26.723Z,24.30
2022-08-05T00:42:57.590Z,24.40
2022-08-05T00:45:38.057Z,24.40
2022-08-05T00:48:10.062Z,24.30
2022-08-05T00:50:38.990Z,24.20
2022-08-05T00:54:00.707Z,24.10
2022-08-05T00:55:59.696Z,23.90
2022-08-05T00:58:28.257Z,23.80
2022-08-05T01:00:56.478Z,23.70
2022-08-05T01:03:31.028Z,23.70
2022-08-05T01:06:03.779Z,23.80
2022-08-05T01:08:42.834Z,23.70
2022-08-05T01:11:22.495Z,23.70
2022-08-05T01:14:01.181Z,23.80
2022-08-05T01:16:34.793Z,23.90
2022-08-05T01:19:14.157Z,24.10
2022-08-05T01:22:27.987Z,24.30
2022-08-05T01:25:10.080Z,24.50
2022-08-05T01:28:14.312Z,24.70
2022-08-05T01:30:53.728Z,24.90
2022-08-05T01:33:35.500Z,25.00
2022-08-05T01:36:13.135Z,25.00
2022-08-05T01:38:46.402Z,24.90
2022-08-05T01:41:22.034Z,24.60
2022-08-05T01:43:53.157Z,24.40
2022-08-05T01:46:41.482Z,24.20
2022-08-05T01:49:23.054Z,24.10
2022-08-05T01:51:56.240Z,24.00
2022-08-05T01:54:31.137Z,23.90
2022-08-05T01:58:12.247Z,23.90
2022-08-05T01:59:52.632Z,23.90
2022-08-05T02:02:28.420Z,23.80
2022-08-05T02:04:59.366Z,23.70
2022-08-05T02:07:30.461Z,23.60
2022-08-05T02:09:58.950Z,23.50
2022-08-05T02:12:35.754Z,23.40
2022-08-05T02:15:12.407Z,23.40
2022-08-05T02:18:32.146Z,23.30
2022-08-05T02:20:48.569Z,23.40
2022-08-05T02:23:21.691Z,23.30
2022-08-05T02:25:52.044Z,23.20
2022-08-05T02:28:28.633Z,23.20
2022-08-05T02:31:04.118Z,23.20
2022-08-05T02:33:38.472Z,23.20
2022-08-05T02:36:10.312Z,23.20
2022-08-05T02:38:43.796Z,23.10
2022-08-05T02:41:22.957Z,23.00
2022-08-05T02:44:02.443Z,23.00
2022-08-05T02:46:53.738Z,22.90
2022-08-05T02:49:27.209Z,22.90
2022-08-05T02:52:06.833Z,22.90
2022-08-05T02:54:37.423Z,22.80
2022-08-05T02:57:09.881Z,22.70
2022-08-05T02:59:56.277Z,22.70
2022-08-05T03:02:29.908Z,22.60
2022-08-05T03:05:00.105Z,22.50
2022-08-05T03:08:00.937Z,22.50
2022-08-05T03:10:21.841Z,22.40
2022-08-05T03:12:53.940Z,22.40
2022-08-05T03:15:23.477Z,22.40
2022-08-05T03:17:55.553Z,22.40
2022-08-05T03:20:24.920Z,22.30
2022-08-05T03:22:55.376Z,22.30
2022-08-05T03:25:32.809Z,22.30
2022-08-05T03:28:18.648Z,22.20
2022-08-05T03:30:49.187Z,22.10
2022-08-05T03:33:19.385Z,22.00
2022-08-05T03:35:48.285Z,21.90
2022-08-05T03:38:32.664Z,21.90
2022-08-05T03:41:08.445Z,21.90
2022-08-05T03:44:09.637Z,21.70
2022-08-05T03:46:29.764Z,21.70
2022-08-05T03:48:59.774Z,21.70
2022-08-05T03:52:37.710Z,21.70
2022-08-05T03:56:09.851Z,21.70
2022-08-05T03:57:21.876Z,21.70
2022-08-05T04:00:12.566Z,21.70
2022-08-05T04:02:57.943Z,21.70
2022-08-05T04:05:33.963Z,21.70
2022-08-05T04:08:05.819Z,21.70
2022-08-05T04:10:53.055Z,21.70
2022-08-05T04:13:21.675Z,21.80
2022-08-05T04:16:02.816Z,21.90
2022-08-05T04:18:32.258Z,21.90
2022-08-05T04:21:05.417Z,22.00
2022-08-05T04:24:05.147Z,22.00
2022-08-05T04:26:23.549Z,22.00
2022-08-05T04:28:52.131Z,22.10
2022-08-05T04:31:20.503Z,22.00
2022-08-05T04:34:19.302Z,22.10
2022-08-05T04:36:45.576Z,22.20
2022-08-05T04:39:17.656Z,22.20
2022-08-05T04:41:48.167Z,22.20
2022-08-05T04:44:29.079Z,22.20
2022-08-05T04:46:58.574Z,22.30
2022-08-05T04:49:38.619Z,22.30
2022-08-05T04:52:16.608Z,22.40
2022-08-05T04:54:44.753Z,22.60
2022-08-05T04:57:12.757Z,22.80
2022-08-05T04:59:41.135Z,22.80
2022-08-05T05:02:37.593Z,22.90
2022-08-05T05:05:02.780Z,22.90
2022-08-05T05:07:35.666Z,22.90
2022-08-05T05:10:06.276Z,22.90
2022-08-05T05:12:36.718Z,22.80
2022-08-05T05:15:10.900Z,22.60
2022-08-05T05:17:56.672Z,22.60
2022-08-05T05:20:28.507Z,22.70
2022-08-05T05:22:58.564Z,22.90
2022-08-05T05:25:40.345Z,23.60
2022-08-05T05:28:09.313Z,24.00
2022-08-05T05:30:37.926Z,24.30
2022-08-05T05:33:15.934Z,24.30
2022-08-05T05:35:48.038Z,24.10
2022-08-05T05:38:27.200Z,23.80
2022-08-05T05:40:57.035Z,23.70
2022-08-05T05:43:57.246Z,23.80
2022-08-05T05:46:17.345Z,24.40
2022-08-05T05:48:47.862Z,25.20
2022-08-05T05:51:21.419Z,25.90
2022-08-05T05:53:58.367Z,26.00
2022-08-05T05:56:32.984Z,26.20
2022-08-05T05:59:05.086Z,26.20
2022-08-05T06:01:37.074Z,26.60
2022-08-05T06:04:08.121Z,27.30
2022-08-05T06:06:37.060Z,27.60
2022-08-05T06:09:17.389Z,27.90
2022-08-05T06:12:01.747Z,28.00
2022-08-05T06:14:33.270Z,28.20
2022-08-05T06:17:21.728Z,28.30
2022-08-05T06:19:56.831Z,28.70
2022-08-05T06:22:29.867Z,28.80
2022-08-05T06:24:59.888Z,28.50
2022-08-05T06:28:12.713Z,28.40
2022-08-05T06:30:19.937Z,27.50
2022-08-05T06:32:50.633Z,28.00
2022-08-05T06:36:02.926Z,28.50
2022-08-05T06:38:10.113Z,29.60
2022-08-05T06:40:42.263Z,29.70
2022-08-05T06:43:58.457Z,30.40
2022-08-05T06:46:06.642Z,30.60
2022-08-05T06:48:56.379Z,31.00
2022-08-05T06:51:30.014Z,31.10
2022-08-05T06:53:59.375Z,31.10
2022-08-05T06:56:30.143Z,31.00
2022-08-05T06:59:01.660Z,30.20
2022-08-05T07:01:32.183Z,30.30
2022-08-05T07:04:03.139Z,30.50
2022-08-05T07:06:31.889Z,30.80
2022-08-05T07:09:04.194Z,30.70
2022-08-05T07:11:37.125Z,30.60
2022-08-05T07:14:29.808Z,31.00
2022-08-05T07:18:01.400Z,31.20
2022-08-05T07:22:41.954Z,31.40
2022-08-05T07:25:54.085Z,31.30
2022-08-05T07:28:07.253Z,31.20
2022-08-05T07:30:39.746Z,31.50
2022-08-05T07:33:16.496Z,31.40
2022-08-05T07:36:03.567Z,31.00
2022-08-05T07:38:42.660Z,30.90
2022-08-05T07:42:06.863Z,30.60
2022-08-05T07:44:03.983Z,30.50
2022-08-05T07:46:36.281Z,30.60
2022-08-05T07:49:07.835Z,30.60
2022-08-05T07:51:40.882Z,30.40
2022-08-05T07:54:18.701Z,30.30
2022-08-05T07:57:01.717Z,30.20
2022-08-05T07:59:39.725Z,30.30
2022-08-05T08:02:16.232Z,30.20
2022-08-05T08:04:48.211Z,30.30
2022-08-05T08:07:17.941Z,30.40
2022-08-05T08:09:46.597Z,30.40
2022-08-05T08:12:35.397Z,30.20
2022-08-05T08:15:09.733Z,30.10
2022-08-05T08:17:50.789Z,29.60
2022-08-05T08:20:43.532Z,29.60
2022-08-05T08:23:11.728Z,29.50
2022-08-05T08:26:00.107Z,29.50
2022-08-05T08:28:36.155Z,29.70
2022-08-05T08:31:07.931Z,29.50
2022-08-05T08:33:37.897Z,29.10
2022-08-05T08:36:39.263Z,28.60
2022-08-05T08:38:56.993Z,28.30
2022-08-05T08:41:51.091Z,28.10
2022-08-05T08:45:22.578Z,28.10
2022-08-05T08:47:47.179Z,28.00
2022-08-05T08:50:06.197Z,28.20
2022-08-05T08:52:51.733Z,28.30
2022-08-05T08:56:03.140Z,28.20
2022-08-05T08:58:12.926Z,27.70
2022-08-05T09:00:42.926Z,27.70
2022-08-05T09:03:16.159Z,28.00
2022-08-05T09:06:09.233Z,27.80
2022-08-05T09:08:40.050Z,27.60
2022-08-05T09:11:13.717Z,28.20
2022-08-05T09:14:00.992Z,28.60
2022-08-05T09:16:31.055Z,28.70
2022-08-05T09:19:00.559Z,28.60
2022-08-05T09:22:22.888Z,28.40
2022-08-05T09:24:18.330Z,28.30
2022-08-05T09:26:52.499Z,28.30
2022-08-05T09:29:20.774Z,28.40
2022-08-05T09:32:41.921Z,28.20
2022-08-05T09:34:56.021Z,28.20
2022-08-05T09:38:16.403Z,27.80
2022-08-05T09:40:30.966Z,28.00
2022-08-05T09:43:01.171Z,28.30
2022-08-05T09:46:06.524Z,28.50
2022-08-05T09:48:30.061Z,28.60
2022-08-05T09:51:01.932Z,28.80
2022-08-05T09:53:54.062Z,28.70
2022-08-05T09:56:27.070Z,28.60
2022-08-05T09:59:04.037Z,28.70
2022-08-05T10:01:35.185Z,28.80
2022-08-05T10:04:11.043Z,28.90
2022-08-05T10:06:54.773Z,29.30
2022-08-05T10:09:28.153Z,29.60
2022-08-05T10:16:52.760Z,29.70
2022-08-05T10:20:02.714Z,29.80
2022-08-05T10:22:30.098Z,29.70
2022-08-05T10:24:59.154Z,29.80
2022-08-05T10:28:09.651Z,29.80
2022-08-05T10:31:20.213Z,29.60
2022-08-05T10:33:14.890Z,29.30
2022-08-05T10:35:59.231Z,29.30
2022-08-05T10:38:33.188Z,29.70
2022-08-05T10:41:07.930Z,29.90
2022-08-05T10:43:59.267Z,29.80
2022-08-05T10:47:31.289Z,29.60
2022-08-05T10:50:36.470Z,29.80
2022-08-05T10:53:06.829Z,29.90
2022-08-05T11:00:03.157Z,29.70
2022-08-05T11:02:51.553Z,29.30
2022-08-05T11:05:49.916Z,29.40
2022-08-05T11:08:39.121Z,29.50
2022-08-05T11:26:29.181Z,29.40
2022-08-05T11:29:13.385Z,29.60
2022-08-05T11:32:25.660Z,29.60
2022-08-05T11:34:54.240Z,29.80
2022-08-05T11:38:26.390Z,30.00
2022-08-05T11:46:27.088Z,29.80
2022-08-05T11:48:39.853Z,29.90
2022-08-05T11:59:41.224Z,30.30
2022-08-05T12:02:30.057Z,30.20
2022-08-05T12:05:07.175Z,30.10
2022-08-05T12:15:49.983Z,30.40
2022-08-05T12:18:59.085Z,30.40
2022-08-05T12:24:50.683Z,30.50
2022-08-05T12:27:53.066Z,30.40
2022-08-05T12:30:47.284Z,30.30
2022-08-05T12:33:27.544Z,30.40
2022-08-05T12:36:38.859Z,30.40
2022-08-05T12:40:10.719Z,30.30
2022-08-05T12:47:25.455Z,30.50
2022-08-05T12:52:10.580Z,30.70
2022-08-05T12:54:16.556Z,30.60
2022-08-05T12:56:54.513Z,30.60
2022-08-05T12:59:27.585Z,30.30
2022-08-05T13:02:14.290Z,30.40
2022-08-05T13:04:52.585Z,30.30
2022-08-05T13:07:47.798Z,30.50
2022-08-05T13:10:19.755Z,30.50
2022-08-05T13:12:57.108Z,30.40
2022-08-05T13:15:41.241Z,30.50
2022-08-05T13:18:19.411Z,30.50
2022-08-05T13:23:55.474Z,30.70
2022-08-05T13:26:29.901Z,31.00
2022-08-05T13:29:03.205Z,31.30
2022-08-05T13:32:03.911Z,31.30
2022-08-05T13:34:27.617Z,31.20
2022-08-05T13:37:04.263Z,31.10
2022-08-05T13:40:16.783Z,31.20
2022-08-05T13:52:29.166Z,31.30
2022-08-05T13:55:07.354Z,31.20
2022-08-05T13:57:51.203Z,31.20
2022-08-05T14:00:26.825Z,31.20
2022-08-05T14:02:56.828Z,31.40
2022-08-05T14:10:11.742Z,31.50
2022-08-05T14:20:07.587Z,31.10
2022-08-05T14:22:39.777Z,31.00
2022-08-05T14:25:28.075Z,30.90
2022-08-05T14:28:01.340Z,30.70
2022-08-05T14:30:29.920Z,30.50
2022-08-05T14:32:59.611Z,30.40
2022-08-05T14:38:52.437Z,30.40
2022-08-05T14:41:22.361Z,30.30
2022-08-05T14:44:01.666Z,30.20
2022-08-05T14:46:42.399Z,30.10
2022-08-05T14:50:17.371Z,30.10
2022-08-05T14:53:44.853Z,30.20
2022-08-05T14:57:02.678Z,30.40
2022-08-05T14:59:39.540Z,30.60
2022-08-05T15:13:00.868Z,30.90
2022-08-05T15:15:54.885Z,31.20
2022-08-05T15:18:22.971Z,31.40
2022-08-05T15:20:51.348Z,31.50
2022-08-05T15:23:19.547Z,31.40
2022-08-05T15:25:52.279Z,31.30
2022-08-05T15:28:27.295Z,31.00
2022-08-05T15:30:57.702Z,31.00
2022-08-05T15:34:05.324Z,31.20
2022-08-05T15:36:17.497Z,31.20
2022-08-05T15:40:59.658Z,31.00
2022-08-05T15:41:55.858Z,31.00
2022-08-05T15:44:51.813Z,30.50
2022-08-05T16:07:13.578Z,28.40
2022-08-05T16:09:44.078Z,28.10
2022-08-05T16:12:12.267Z,27.90
2022-08-05T16:22:52.597Z,27.90
2022-08-05T16:29:50.425Z,28.00
2022-08-05T16:44:57.037Z,28.10
2022-08-05T16:58:35.560Z,27.60
2022-08-05T17:01:06.608Z,27.40
2022-08-05T17:03:38.934Z,27.20
2022-08-05T17:06:08.029Z,27.30
2022-08-05T17:08:54.896Z,27.40
2022-08-05T17:22:46.004Z,26.70
2022-08-05T17:26:12.671Z,26.40
2022-08-05T17:28:43.328Z,26.50
2022-08-05T17:31:24.414Z,26.40
2022-08-05T17:34:12.303Z,26.60
2022-08-05T17:40:32.346Z,26.40
2022-08-05T17:47:11.632Z,26.50
2022-08-05T17:49:59.715Z,26.30
2022-08-05T17:52:31.619Z,26.20
2022-08-05T17:55:49.037Z,26.10
2022-08-05T18:02:24.180Z,25.80
2022-08-05T18:05:00.529Z,25.60
2022-08-05T18:07:41.724Z,25.50
2022-08-05T18:10:14.049Z,25.20
2022-08-05T18:12:49.523Z,25.10
2022-08-05T18:15:17.871Z,25.00
2022-08-05T18:17:58.959Z,24.90
2022-08-05T18:21:13.334Z,24.80
2022-08-05T18:27:52.440Z,24.60
2022-08-05T18:30:20.976Z,24.40
2022-08-05T18:32:53.383Z,24.40
2022-08-05T18:36:01.398Z,24.30
2022-08-05T18:38:26.028Z,24.30
2022-08-05T18:41:57.469Z,24.30
2022-08-05T18:43:48.771Z,24.20
2022-08-05T18:46:20.201Z,24.20
2022-08-05T18:48:52.799Z,24.20
2022-08-05T18:52:04.053Z,24.10
2022-08-05T18:54:28.365Z,24.10
2022-08-05T18:57:09.864Z,24.00
2022-08-05T19:00:02.940Z,24.00
2022-08-05T19:06:45.339Z,23.90
2022-08-05T19:12:28.368Z,23.70
2022-08-05T19:15:00.831Z,23.60
2022-08-05T19:17:58.288Z,23.50
2022-08-05T19:20:18.999Z,23.50
2022-08-05T19:22:51.064Z,23.30
2022-08-05T19:25:29.588Z,23.20
2022-08-05T19:27:59.864Z,23.10
2022-08-05T19:30:33.436Z,23.00
2022-08-05T19:33:05.132Z,22.90
2022-08-05T19:35:56.444Z,22.90
2022-08-05T19:38:26.646Z,22.80
2022-08-05T19:40:55.076Z,22.70
2022-08-05T19:44:04.879Z,22.70
2022-08-05T19:46:29.024Z,22.60
2022-08-05T19:49:02.852Z,22.60
2022-08-05T19:52:05.132Z,22.50
2022-08-05T19:54:26.799Z,22.50
2022-08-05T19:56:59.823Z,22.40
2022-08-05T19:59:55.505Z,22.30
2022-08-05T20:02:26.183Z,22.20
2022-08-05T20:04:58.854Z,22.20
2022-08-05T20:07:46.911Z,22.20
2022-08-05T20:11:18.088Z,22.10
2022-08-05T20:17:35.314Z,22.00
2022-08-05T20:20:11.150Z,22.00
2022-08-05T20:22:41.458Z,22.00
2022-08-05T20:25:18.424Z,21.90
2022-08-05T20:27:46.835Z,21.80
2022-08-05T20:30:23.713Z,21.80
2022-08-05T20:33:15.765Z,21.70
2022-08-05T20:39:45.191Z,21.60
2022-08-05T20:42:21.783Z,21.50
2022-08-05T20:44:50.093Z,21.60
2022-08-05T20:47:18.564Z,21.50
2022-08-05T20:49:51.320Z,21.60
2022-08-05T20:52:19.528Z,21.50
2022-08-05T20:54:59.662Z,21.40
2022-08-05T20:57:47.829Z,21.30
2022-08-05T21:00:34.944Z,20.90
2022-08-05T21:03:08.058Z,20.40
2022-08-05T21:05:53.606Z,19.80
2022-08-05T21:08:26.676Z,19.40
2022-08-05T21:11:01.737Z,19.00
2022-08-05T21:13:48.319Z,18.80
2022-08-05T21:16:29.641Z,18.70
2022-08-05T21:19:00.356Z,18.60
2022-08-05T21:21:38.970Z,18.50
2022-08-05T21:24:15.433Z,18.40
2022-08-05T21:26:50.565Z,18.30
2022-08-05T21:29:31.266Z,18.20
2022-08-05T21:32:00.905Z,18.20
2022-08-05T21:34:28.975Z,18.20
2022-08-05T21:37:01.649Z,18.20
2022-08-05T21:39:30.266Z,18.20
2022-08-05T21:42:02.778Z,18.20
2022-08-05T21:44:31.800Z,18.20
2022-08-05T21:47:00.277Z,18.30
2022-08-05T21:49:48.279Z,18.30
2022-08-05T21:52:27.328Z,18.40
2022-08-05T21:54:56.549Z,18.50
2022-08-05T21:57:32.552Z,18.50
2022-08-05T22:00:06.238Z,18.50
2022-08-05T22:02:35.121Z,18.50
2022-08-05T22:05:04.308Z,18.60
2022-08-05T22:07:40.352Z,18.70
2022-08-05T22:10:25.521Z,18.70
2022-08-05T22:12:57.528Z,18.70
2022-08-05T22:16:01.060Z,18.80
2022-08-05T22:18:15.832Z,18.80
2022-08-05T22:20:47.752Z,18.80
2022-08-05T22:24:00.831Z,18.70
2022-08-05T22:26:50.012Z,18.70
2022-08-05T22:29:26.309Z,18.70
2022-08-05T22:31:59.565Z,18.70
2022-08-05T22:34:31.308Z,18.80
2022-08-05T22:37:00.589Z,18.80
2022-08-05T22:39:34.556Z,18.80
2022-08-05T22:42:09.493Z,18.70
2022-08-05T22:44:56.352Z,18.70
2022-08-05T22:47:30.106Z,18.70
2022-08-05T22:50:19.595Z,18.70
2022-08-05T22:52:48.085Z,18.90
2022-08-05T22:55:21.105Z,18.90
2022-08-05T22:57:50.456Z,18.90
2022-08-05T23:00:43.614Z,18.90
2022-08-05T23:03:13.747Z,18.90
2022-08-05T23:05:42.129Z,18.90
2022-08-05T23:08:12.360Z,18.90
2022-08-05T23:10:46.054Z,18.90
2022-08-05T23:13:14.555Z,18.80
2022-08-05T23:15:42.797Z,18.90
2022-08-05T23:18:11.574Z,18.90
2022-08-05T23:20:43.976Z,18.80
2022-08-05T23:23:12.353Z,18.70
2022-08-05T23:25:51.905Z,18.80
2022-08-05T23:28:27.675Z,18.70
2022-08-05T23:31:16.119Z,18.70
2022-08-05T23:34:03.781Z,18.60
2022-08-05T23:36:39.729Z,18.60
2022-08-05T23:39:17.244Z,18.50
2022-08-05T23:41:52.259Z,18.50
2022-08-05T23:44:25.104Z,18.50
2022-08-05T23:46:56.162Z,18.50
2022-08-05T23:49:35.796Z,18.50
2022-08-05T23:52:21.984Z,18.50
2022-08-05T23:54:54.614Z,18.60
2022-08-05T23:57:24.393Z,18.50
